createdAt,value
2018-09-27T00:01:20.229Z,2.50
2018-09-27T00:03:49.877Z,2.13
2018-09-27T00:06:20.567Z,3.00
2018-09-27T00:08:50.122Z,2.57
2018-09-27T00:11:19.767Z,2.27
2018-09-27T00:13:49.439Z,2.37
2018-09-27T00:16:19.081Z,2.53
2018-09-27T00:18:48.703Z,2.47
2018-09-27T00:21:18.339Z,2.07
2018-09-27T00:23:48.012Z,2.27
2018-09-27T00:26:17.470Z,2.87
2018-09-27T00:29:50.248Z,2.60
2018-09-27T00:32:19.726Z,2.60
2018-09-27T00:34:49.301Z,2.50
2018-09-27T00:37:18.878Z,2.13
2018-09-27T00:39:48.512Z,2.40
2018-09-27T00:42:18.085Z,2.30
2018-09-27T00:44:47.581Z,2.40
2018-09-27T00:47:17.187Z,2.63
2018-09-27T00:49:46.843Z,2.30
2018-09-27T00:52:16.349Z,2.47
2018-09-27T00:54:45.945Z,2.30
2018-09-27T00:57:15.670Z,2.50
2018-09-27T00:59:46.130Z,2.40
2018-09-27T01:02:15.731Z,2.60
2018-09-27T01:04:45.206Z,2.83
2018-09-27T01:07:14.829Z,2.70
2018-09-27T01:09:44.712Z,2.70
2018-09-27T01:12:14.339Z,2.63
2018-09-27T01:14:44.094Z,2.57
2018-09-27T01:17:13.941Z,2.60
2018-09-27T01:19:43.817Z,2.20
2018-09-27T01:22:13.591Z,2.50
2018-09-27T01:24:43.039Z,2.30
2018-09-27T01:27:12.711Z,2.53
2018-09-27T01:29:42.289Z,3.00
2018-09-27T01:32:12.005Z,2.73
2018-09-27T01:34:41.704Z,3.07
2018-09-27T01:37:11.366Z,2.80
2018-09-27T01:39:41.042Z,3.10
2018-09-27T01:42:10.710Z,2.50
2018-09-27T01:44:40.335Z,2.30
2018-09-27T01:47:10.046Z,2.50
2018-09-27T01:49:39.790Z,2.67
2018-09-27T01:52:09.329Z,2.43
2018-09-27T01:54:39.605Z,2.90
2018-09-27T01:57:09.304Z,2.80
2018-09-27T01:59:39.045Z,2.40
2018-09-27T02:02:08.861Z,2.70
2018-09-27T02:04:38.568Z,2.93
2018-09-27T02:07:08.084Z,2.43
2018-09-27T02:09:37.851Z,2.40
2018-09-27T02:12:07.526Z,2.40
2018-09-27T02:14:36.991Z,2.67
2018-09-27T02:17:06.589Z,2.40
2018-09-27T02:19:36.247Z,2.97
2018-09-27T02:22:05.889Z,2.83
2018-09-27T02:24:35.432Z,2.40
2018-09-27T02:27:05.317Z,2.50
2018-09-27T02:29:34.879Z,2.50
2018-09-27T02:32:04.562Z,2.60
2018-09-27T02:34:35.030Z,2.53
2018-09-27T02:37:04.676Z,2.63
2018-09-27T02:39:34.362Z,2.40
2018-09-27T02:42:03.842Z,2.80
2018-09-27T02:44:33.366Z,2.30
2018-09-27T02:47:02.844Z,2.80
2018-09-27T02:49:32.674Z,2.90
2018-09-27T02:52:02.240Z,2.90
2018-09-27T02:54:31.989Z,2.07
2018-09-27T02:57:01.778Z,2.30
2018-09-27T02:59:31.514Z,2.90
2018-09-27T03:02:01.811Z,2.47
2018-09-27T03:04:31.465Z,2.70
2018-09-27T03:07:01.084Z,2.57
2018-09-27T03:09:30.744Z,2.50
2018-09-27T03:12:00.459Z,2.83
2018-09-27T03:14:30.113Z,2.87
2018-09-27T03:16:59.890Z,2.50
2018-09-27T03:19:29.519Z,2.53
2018-09-27T03:21:59.996Z,2.40
2018-09-27T03:24:29.636Z,2.80
2018-09-27T03:26:59.383Z,2.70
2018-09-27T03:29:28.908Z,2.70
2018-09-27T03:31:58.663Z,3.00
2018-09-27T03:34:28.294Z,2.50
2018-09-27T03:36:58.059Z,2.73
2018-09-27T03:39:27.856Z,2.50
2018-09-27T03:41:57.550Z,2.80
2018-09-27T03:44:27.278Z,3.00
2018-09-27T03:46:57.023Z,2.80
2018-09-27T03:49:26.475Z,2.87
2018-09-27T03:51:56.202Z,3.43
2018-09-27T03:54:25.824Z,2.87
2018-09-27T03:56:55.434Z,3.20
2018-09-27T03:59:25.128Z,3.57
2018-09-27T04:01:54.863Z,3.23
2018-09-27T04:04:24.340Z,3.73
2018-09-27T04:06:53.951Z,3.13
2018-09-27T04:09:23.762Z,3.20
2018-09-27T04:11:53.434Z,2.53
2018-09-27T04:14:23.227Z,3.80
2018-09-27T04:16:52.927Z,2.80
2018-09-27T04:19:24.232Z,3.17
2018-09-27T04:21:54.452Z,3.47
2018-09-27T04:24:24.066Z,4.00
2018-09-27T04:26:53.725Z,3.27
2018-09-27T04:29:23.375Z,3.20
2018-09-27T04:31:53.146Z,3.43
2018-09-27T04:34:22.674Z,3.43
2018-09-27T04:36:52.274Z,4.30
2018-09-27T04:39:22.084Z,3.60
2018-09-27T04:41:51.843Z,3.43
2018-09-27T04:44:21.430Z,3.13
2018-09-27T04:46:51.577Z,3.50
2018-09-27T04:49:21.103Z,3.40
2018-09-27T04:51:50.762Z,3.43
2018-09-27T04:54:20.371Z,3.77
2018-09-27T04:56:49.962Z,4.00
2018-09-27T04:59:19.486Z,4.57
2018-09-27T05:01:49.273Z,4.83
2018-09-27T05:04:19.144Z,4.27
2018-09-27T05:06:48.767Z,4.50
2018-09-27T05:09:18.487Z,4.90
2018-09-27T05:11:48.227Z,5.20
2018-09-27T05:14:17.891Z,4.80
2018-09-27T05:16:47.615Z,4.50
2018-09-27T05:19:17.585Z,4.73
2018-09-27T05:21:47.188Z,5.43
2018-09-27T05:24:16.780Z,5.17
2018-09-27T05:26:46.718Z,4.90
2018-09-27T05:29:16.328Z,4.80
2018-09-27T05:31:46.558Z,5.70
2018-09-27T05:34:16.178Z,5.33
2018-09-27T05:36:46.356Z,4.27
2018-09-27T05:39:15.947Z,5.40
2018-09-27T05:41:45.484Z,4.67
2018-09-27T05:44:15.216Z,6.10
2018-09-27T05:46:44.826Z,6.40
2018-09-27T05:49:14.720Z,7.00
2018-09-27T05:51:44.491Z,7.70
2018-09-27T05:54:15.095Z,5.87
2018-09-27T05:56:44.870Z,6.57
2018-09-27T05:59:14.764Z,8.30
2018-09-27T06:01:45.004Z,9.50
2018-09-27T06:04:14.791Z,6.43
2018-09-27T06:06:44.822Z,6.13
2018-09-27T06:09:14.469Z,8.37
2018-09-27T06:11:44.262Z,7.33
2018-09-27T06:14:13.921Z,6.40
2018-09-27T06:16:43.578Z,4.87
2018-09-27T06:19:13.413Z,4.93
2018-09-27T06:21:43.148Z,5.13
2018-09-27T06:24:12.717Z,5.20
2018-09-27T06:26:42.489Z,4.03
2018-09-27T06:29:11.967Z,8.30
2018-09-27T06:31:41.798Z,6.67
2018-09-27T06:34:11.431Z,8.50
2018-09-27T06:36:42.851Z,4.84
2018-09-27T06:39:12.762Z,5.37
2018-09-27T06:41:42.505Z,7.03
2018-09-27T06:44:12.270Z,5.93
2018-09-27T06:46:42.020Z,5.87
2018-09-27T06:49:11.700Z,6.37
2018-09-27T06:51:41.518Z,5.47
2018-09-27T06:54:11.364Z,4.83
2018-09-27T06:56:41.020Z,5.30
2018-09-27T06:59:10.940Z,5.47
2018-09-27T07:01:40.626Z,4.73
2018-09-27T07:04:10.417Z,3.77
2018-09-27T07:06:40.452Z,3.57
2018-09-27T07:09:12.263Z,3.43
2018-09-27T07:11:42.454Z,3.30
2018-09-27T07:14:12.522Z,4.80
2018-09-27T07:16:41.964Z,4.60
2018-09-27T07:19:11.731Z,3.20
2018-09-27T07:21:41.634Z,3.30
2018-09-27T07:24:11.271Z,4.67
2018-09-27T07:26:41.015Z,4.20
2018-09-27T07:29:10.652Z,3.40
2018-09-27T07:31:40.342Z,3.20
2018-09-27T07:34:10.065Z,3.40
2018-09-27T07:36:39.796Z,4.73
2018-09-27T07:39:11.726Z,2.90
2018-09-27T07:41:41.717Z,2.93
2018-09-27T07:44:11.982Z,3.33
2018-09-27T07:46:42.974Z,5.00
2018-09-27T07:49:12.612Z,4.70
2018-09-27T07:51:42.201Z,3.07
2018-09-27T07:54:12.001Z,2.37
2018-09-27T07:56:41.892Z,3.37
2018-09-27T07:59:11.606Z,3.30
2018-09-27T08:01:41.492Z,3.93
2018-09-27T08:04:11.336Z,3.47
2018-09-27T08:06:41.066Z,2.60
2018-09-27T08:09:10.774Z,3.50
2018-09-27T08:11:41.244Z,2.80
2018-09-27T08:14:10.913Z,2.57
2018-09-27T08:16:40.660Z,2.77
2018-09-27T08:19:10.204Z,2.20
2018-09-27T08:21:39.966Z,2.57
2018-09-27T08:24:09.864Z,6.87
2018-09-27T08:26:39.548Z,3.90
2018-09-27T08:29:09.227Z,5.13
2018-09-27T08:31:38.806Z,3.10
2018-09-27T08:34:08.398Z,3.50
2018-09-27T08:36:37.982Z,3.20
2018-09-27T08:39:10.497Z,3.23
2018-09-27T08:41:40.372Z,2.53
2018-09-27T08:44:11.090Z,2.60
2018-09-27T08:46:42.307Z,3.30
2018-09-27T08:49:11.945Z,2.70
2018-09-27T08:51:41.819Z,3.37
2018-09-27T08:54:11.539Z,3.10
2018-09-27T08:56:41.213Z,3.03
2018-09-27T08:59:10.998Z,3.30
2018-09-27T09:01:40.843Z,2.67
2018-09-27T09:04:10.435Z,2.70
2018-09-27T09:06:40.160Z,2.50
2018-09-27T09:09:12.061Z,2.33
2018-09-27T09:11:41.936Z,2.63
2018-09-27T09:14:12.391Z,2.40
2018-09-27T09:16:42.302Z,2.97
2018-09-27T09:19:12.063Z,2.90
2018-09-27T09:21:41.979Z,2.70
2018-09-27T09:24:11.467Z,3.40
2018-09-27T09:26:41.119Z,3.77
2018-09-27T09:29:11.094Z,2.37
2018-09-27T09:31:40.734Z,2.90
2018-09-27T09:34:10.647Z,2.50
2018-09-27T09:36:40.219Z,2.50
2018-09-27T09:39:10.184Z,2.70
2018-09-27T09:41:39.779Z,2.60
2018-09-27T09:44:09.316Z,2.57
2018-09-27T09:46:38.991Z,2.43
2018-09-27T09:49:08.496Z,2.60
2018-09-27T09:51:38.131Z,2.50
2018-09-27T09:54:08.075Z,3.50
2018-09-27T09:56:37.722Z,2.70
2018-09-27T09:59:07.646Z,2.83
2018-09-27T10:01:37.365Z,3.43
2018-09-27T10:04:07.132Z,2.90
2018-09-27T10:06:36.978Z,3.10
2018-09-27T10:09:08.288Z,3.20
2018-09-27T10:11:38.226Z,2.83
2018-09-27T10:14:08.112Z,3.77
2018-09-27T10:16:38.136Z,4.40
2018-09-27T10:19:07.809Z,2.93
2018-09-27T10:21:37.689Z,3.37
2018-09-27T10:24:07.403Z,3.43
2018-09-27T10:26:36.969Z,3.57
2018-09-27T10:29:06.783Z,3.30
2018-09-27T10:31:36.613Z,2.87
2018-09-27T10:34:06.469Z,2.70
2018-09-27T10:36:36.278Z,2.70
2018-09-27T10:39:08.225Z,2.97
2018-09-27T10:41:37.808Z,2.67
2018-09-27T10:44:07.430Z,2.50
2018-09-27T10:46:37.089Z,2.60
2018-09-27T10:49:06.889Z,2.50
2018-09-27T10:51:36.725Z,2.30
2018-09-27T10:54:06.634Z,2.80
2018-09-27T10:56:36.293Z,3.30
2018-09-27T10:59:06.134Z,2.53
2018-09-27T11:01:35.799Z,2.50
2018-09-27T11:04:05.628Z,3.07
2018-09-27T11:06:36.926Z,2.60
2018-09-27T11:09:08.645Z,4.00
2018-09-27T11:11:38.631Z,3.80
2018-09-27T11:14:08.204Z,3.53
2018-09-27T11:16:38.020Z,3.73
2018-09-27T11:19:07.752Z,2.70
2018-09-27T11:21:37.408Z,2.90
2018-09-27T11:24:07.175Z,3.33
2018-09-27T11:26:36.726Z,2.63
2018-09-27T11:29:11.443Z,3.33
2018-09-27T11:31:46.165Z,3.00
2018-09-27T11:34:15.756Z,2.53
2018-09-27T11:36:45.577Z,3.00
2018-09-27T11:39:15.359Z,3.47
2018-09-27T11:41:45.087Z,3.60
2018-09-27T11:44:14.940Z,3.33
2018-09-27T11:46:44.603Z,2.60
2018-09-27T11:49:15.628Z,3.00
2018-09-27T11:51:45.039Z,2.07
2018-09-27T11:54:14.792Z,2.53
2018-09-27T11:56:44.566Z,2.97
2018-09-27T11:59:14.852Z,2.93
2018-09-27T12:01:44.695Z,2.70
2018-09-27T12:04:14.403Z,2.80
2018-09-27T12:06:44.136Z,2.17
2018-09-27T12:09:14.097Z,2.70
2018-09-27T12:11:43.835Z,2.73
2018-09-27T12:14:14.234Z,3.90
2018-09-27T12:16:44.083Z,2.50
2018-09-27T12:19:13.841Z,2.90
2018-09-27T12:21:43.588Z,2.50
2018-09-27T12:24:13.058Z,2.93
2018-09-27T12:26:42.938Z,3.37
2018-09-27T12:29:12.670Z,2.87
2018-09-27T12:31:42.252Z,3.10
2018-09-27T12:34:11.929Z,2.77
2018-09-27T12:36:41.864Z,2.67
2018-09-27T12:39:12.630Z,2.40
2018-09-27T12:41:42.447Z,2.70
2018-09-27T12:44:12.100Z,3.13
2018-09-27T12:46:42.160Z,3.90
2018-09-27T12:49:19.985Z,2.70
2018-09-27T12:51:49.875Z,4.23
2018-09-27T12:54:20.542Z,5.07
2018-09-27T12:56:50.363Z,3.90
2018-09-27T12:59:19.853Z,5.70
2018-09-27T13:01:49.673Z,3.57
2018-09-27T13:04:19.374Z,6.33
2018-09-27T13:06:48.954Z,4.53
2018-09-27T13:09:18.826Z,6.63
2018-09-27T13:11:48.349Z,3.97
2018-09-27T13:14:18.127Z,3.37
2018-09-27T13:16:47.915Z,3.90
2018-09-27T13:19:18.438Z,2.90
2018-09-27T13:21:48.086Z,3.27
2018-09-27T13:24:17.887Z,3.10
2018-09-27T13:26:47.450Z,3.83
2018-09-27T13:29:17.191Z,4.23
2018-09-27T13:31:47.587Z,3.40
2018-09-27T13:34:17.291Z,3.30
2018-09-27T13:36:47.043Z,9.53
2018-09-27T13:39:16.790Z,3.27
2018-09-27T13:41:46.628Z,3.97
2018-09-27T13:44:16.464Z,3.67
2018-09-27T13:46:46.171Z,2.60
2018-09-27T13:49:15.898Z,3.30
2018-09-27T13:51:45.633Z,3.10
2018-09-27T13:54:16.159Z,3.43
2018-09-27T13:56:45.991Z,4.47
2018-09-27T13:59:15.822Z,3.97
2018-09-27T14:01:45.332Z,2.70
2018-09-27T14:04:15.127Z,3.50
2018-09-27T14:06:44.988Z,4.13
2018-09-27T14:09:14.557Z,3.90
2018-09-27T14:11:44.445Z,3.87
2018-09-27T14:14:14.235Z,3.60
2018-09-27T14:16:44.116Z,3.40
2018-09-27T14:19:13.731Z,4.10
2018-09-27T14:21:43.321Z,3.33
2018-09-27T14:24:13.115Z,3.10
2018-09-27T14:26:42.732Z,2.93
2018-09-27T14:29:12.266Z,4.70
2018-09-27T14:31:42.111Z,3.23
2018-09-27T14:34:11.685Z,3.63
2018-09-27T14:36:41.311Z,3.43
2018-09-27T14:39:11.555Z,3.10
2018-09-27T14:41:41.515Z,3.10
2018-09-27T14:44:11.181Z,3.20
2018-09-27T14:46:40.751Z,3.37
2018-09-27T14:49:11.618Z,3.50
2018-09-27T14:51:41.367Z,3.20
2018-09-27T14:54:11.002Z,4.87
2018-09-27T14:56:40.501Z,2.97
2018-09-27T14:59:10.168Z,3.13
2018-09-27T15:01:39.920Z,4.10
2018-09-27T15:04:09.839Z,3.37
2018-09-27T15:06:39.656Z,4.20
2018-09-27T15:09:11.119Z,4.17
2018-09-27T15:11:41.677Z,5.13
2018-09-27T15:14:11.315Z,4.20
2018-09-27T15:16:40.971Z,4.83
2018-09-27T15:19:10.819Z,4.43
2018-09-27T15:21:41.150Z,3.40
2018-09-27T15:24:11.560Z,3.17
2018-09-27T15:26:41.270Z,3.30
2018-09-27T15:29:11.021Z,6.30
2018-09-27T15:31:40.590Z,9.10
2018-09-27T15:34:10.222Z,6.33
2018-09-27T15:36:39.911Z,3.93
2018-09-27T15:39:09.608Z,3.87
2018-09-27T15:41:39.313Z,4.50
2018-09-27T15:44:09.063Z,3.83
2018-09-27T15:46:38.641Z,4.17
2018-09-27T15:49:08.374Z,3.93
2018-09-27T15:51:37.936Z,4.23
2018-09-27T15:54:08.026Z,4.67
2018-09-27T15:56:37.769Z,3.57
2018-09-27T15:59:07.710Z,5.20
2018-09-27T16:01:37.302Z,4.23
2018-09-27T16:04:07.235Z,5.10
2018-09-27T16:06:36.810Z,5.33
2018-09-27T16:09:08.486Z,5.77
2018-09-27T16:11:38.369Z,5.17
2018-09-27T16:14:08.086Z,4.77
2018-09-27T16:16:37.707Z,5.67
2018-09-27T16:19:07.461Z,5.23
2018-09-27T16:21:37.211Z,6.07
2018-09-27T16:24:07.915Z,6.20
2018-09-27T16:26:37.530Z,7.10
2018-09-27T16:29:07.302Z,6.63
2018-09-27T16:31:36.909Z,6.87
2018-09-27T16:34:06.853Z,5.27
2018-09-27T16:36:36.662Z,4.67
2018-09-27T16:39:08.609Z,4.37
2018-09-27T16:41:38.923Z,4.93
2018-09-27T16:44:08.801Z,5.00
2018-09-27T16:46:38.650Z,4.80
2018-09-27T16:49:08.476Z,4.60
2018-09-27T16:51:38.249Z,7.90
2018-09-27T16:54:08.036Z,4.77
2018-09-27T16:56:37.801Z,4.50
2018-09-27T16:59:07.874Z,5.10
2018-09-27T17:01:37.493Z,7.17
2018-09-27T17:04:07.062Z,9.00
2018-09-27T17:06:36.687Z,4.67
2018-09-27T17:09:07.534Z,5.43
2018-09-27T17:11:37.461Z,5.27
2018-09-27T17:14:07.372Z,5.87
2018-09-27T17:16:37.034Z,5.00
2018-09-27T17:19:06.655Z,5.10
2018-09-27T17:21:36.502Z,5.60
2018-09-27T17:24:06.281Z,6.23
2018-09-27T17:26:35.937Z,5.20
2018-09-27T17:29:05.554Z,4.93
2018-09-27T17:31:35.385Z,5.13
2018-09-27T17:34:05.070Z,5.13
2018-09-27T17:36:34.592Z,4.23
2018-09-27T17:39:05.527Z,5.03
2018-09-27T17:41:35.207Z,4.73
2018-09-27T17:44:05.019Z,4.03
2018-09-27T17:46:34.674Z,5.00
2018-09-27T17:49:04.333Z,7.40
2018-09-27T17:51:33.951Z,13.50
2018-09-27T17:54:03.738Z,5.93
2018-09-27T17:56:33.594Z,4.83
2018-09-27T17:59:03.300Z,8.17
2018-09-27T18:01:34.091Z,4.60
2018-09-27T18:04:03.781Z,4.93
2018-09-27T18:06:33.522Z,4.83
2018-09-27T18:09:03.255Z,4.43
2018-09-27T18:11:33.061Z,4.03
2018-09-27T18:14:02.866Z,4.20
2018-09-27T18:16:33.373Z,4.27
2018-09-27T18:19:03.034Z,4.23
2018-09-27T18:21:32.783Z,6.40
2018-09-27T18:24:02.635Z,6.00
2018-09-27T18:26:32.310Z,6.03
2018-09-27T18:29:01.937Z,4.60
2018-09-27T18:31:31.640Z,4.80
2018-09-27T18:34:01.409Z,4.70
2018-09-27T18:36:31.056Z,4.97
2018-09-27T18:39:00.791Z,5.17
2018-09-27T18:41:30.448Z,5.43
2018-09-27T18:43:59.949Z,6.97
2018-09-27T18:46:29.684Z,5.50
2018-09-27T18:48:59.260Z,5.70
2018-09-27T18:51:29.004Z,5.60
2018-09-27T18:53:59.492Z,6.07
2018-09-27T18:56:29.882Z,6.10
2018-09-27T18:58:59.550Z,6.37
2018-09-27T19:01:29.581Z,10.03
2018-09-27T19:03:59.615Z,6.03
2018-09-27T19:06:29.384Z,6.00
2018-09-27T19:08:59.051Z,6.33
2018-09-27T19:11:28.845Z,5.97
2018-09-27T19:13:58.454Z,5.63
2018-09-27T19:16:28.221Z,5.90
2018-09-27T19:18:58.085Z,5.43
2018-09-27T19:21:27.822Z,5.80
2018-09-27T19:23:58.654Z,5.57
2018-09-27T19:26:28.179Z,5.63
2018-09-27T19:28:58.950Z,5.40
2018-09-27T19:31:29.430Z,7.27
2018-09-27T19:33:59.142Z,7.93
2018-09-27T19:36:28.749Z,5.40
2018-09-27T19:38:58.743Z,33.90
2018-09-27T19:41:28.430Z,16.77
2018-09-27T19:43:58.563Z,6.30
2018-09-27T19:46:28.363Z,5.70
2018-09-27T19:48:57.863Z,8.20
2018-09-27T19:51:27.474Z,5.53
2018-09-27T19:53:57.003Z,6.07
2018-09-27T19:56:26.781Z,6.60
2018-09-27T19:58:56.483Z,7.40
2018-09-27T20:01:26.179Z,6.30
2018-09-27T20:03:55.768Z,6.30
2018-09-27T20:06:25.519Z,6.70
2018-09-27T20:08:55.541Z,9.23
2018-09-27T20:11:25.247Z,7.30
2018-09-27T20:13:54.940Z,8.50
2018-09-27T20:16:24.725Z,8.97
2018-09-27T20:18:54.657Z,8.83
2018-09-27T20:21:24.418Z,8.87
2018-09-27T20:23:54.088Z,9.57
2018-09-27T20:26:23.805Z,9.17
2018-09-27T20:28:53.360Z,8.67
2018-09-27T20:31:22.901Z,9.83
2018-09-27T20:33:52.589Z,8.53
2018-09-27T20:36:22.316Z,9.37
2018-09-27T20:38:51.991Z,9.70
2018-09-27T20:41:21.707Z,8.80
2018-09-27T20:43:51.308Z,8.50
2018-09-27T20:46:20.932Z,7.43
2018-09-27T20:48:50.739Z,8.63
2018-09-27T20:51:20.303Z,7.33
2018-09-27T20:53:49.923Z,8.63
2018-09-27T20:56:19.589Z,9.07
2018-09-27T20:58:49.259Z,10.80
2018-09-27T21:01:18.822Z,9.93
2018-09-27T21:03:48.681Z,12.57
2018-09-27T21:06:18.361Z,8.80
2018-09-27T21:08:48.126Z,8.40
2018-09-27T21:11:17.540Z,10.33
2018-09-27T21:13:47.146Z,9.73
2018-09-27T21:16:16.795Z,8.63
2018-09-27T21:18:46.465Z,10.33
2018-09-27T21:21:16.040Z,9.33
2018-09-27T21:23:45.635Z,9.87
2018-09-27T21:26:15.357Z,8.13
2018-09-27T21:28:44.846Z,8.13
2018-09-27T21:35:21.097Z,9.13
2018-09-27T21:37:51.021Z,9.30
2018-09-27T21:40:20.775Z,9.13
2018-09-27T21:42:50.512Z,9.67
2018-09-27T21:45:20.341Z,9.20
2018-09-27T21:47:50.031Z,14.77
2018-09-27T21:50:20.470Z,9.83
2018-09-27T21:52:50.260Z,8.77
2018-09-27T21:55:20.072Z,10.00
2018-09-27T21:57:49.994Z,8.53
2018-09-27T22:00:19.925Z,10.63
2018-09-27T22:02:49.712Z,9.67
2018-09-27T22:05:19.865Z,9.67
2018-09-27T22:07:49.620Z,9.00
2018-09-27T22:10:19.484Z,8.80
2018-09-27T22:12:49.172Z,8.27
2018-09-27T22:15:18.889Z,8.80
2018-09-27T22:17:48.785Z,10.03
2018-09-27T22:20:18.545Z,9.13
2018-09-27T22:22:48.430Z,9.13
2018-09-27T22:25:18.228Z,9.90
2018-09-27T22:27:48.076Z,12.37
2018-09-27T22:30:17.767Z,13.93
2018-09-27T22:32:47.574Z,11.17
2018-09-27T22:35:17.872Z,9.90
2018-09-27T22:37:47.788Z,11.00
2018-09-27T22:40:17.703Z,9.67
2018-09-27T22:42:47.505Z,10.83
2018-09-27T22:45:17.255Z,10.37
2018-09-27T22:47:47.114Z,9.93
2018-09-27T22:50:16.972Z,10.90
2018-09-27T22:52:46.873Z,10.50
2018-09-27T22:55:16.817Z,10.27
2018-09-27T22:57:46.593Z,10.50
2018-09-27T23:00:17.281Z,9.87
2018-09-27T23:02:46.943Z,9.97
2018-09-27T23:05:16.919Z,10.50
2018-09-27T23:07:46.620Z,9.40
2018-09-27T23:10:17.008Z,9.47
2018-09-27T23:12:46.916Z,9.77
2018-09-27T23:15:16.706Z,12.07
2018-09-27T23:17:47.404Z,10.33
2018-09-27T23:20:17.231Z,10.50
2018-09-27T23:22:47.065Z,10.77
2018-09-27T23:25:17.103Z,9.67
2018-09-27T23:27:46.974Z,10.97
2018-09-27T23:30:16.725Z,10.63
2018-09-27T23:32:46.596Z,11.23
2018-09-27T23:35:16.359Z,9.43
2018-09-27T23:37:46.123Z,11.13
2018-09-27T23:40:15.799Z,9.80
2018-09-27T23:42:45.438Z,10.00
2018-09-27T23:45:14.988Z,11.63
2018-09-27T23:47:44.728Z,12.37
2018-09-27T23:50:14.258Z,9.87
2018-09-27T23:52:43.902Z,8.00
2018-09-27T23:55:13.478Z,7.70
2018-09-27T23:57:43.164Z,10.63
